Time;durP1;ratioP1;P1;durP2;ratioP2;P2;SDS_P1;SDS_P2;PMS_P1;PMS_P2;Temp;Humidity;BMP_temperature;BMP_pressure;BME280_temperature;BME280_humidity;BME280_pressure;Samples;Min_cycle;Max_cycle;Signal;HPM_P1;HPM_P2
2021/03/05 00:00:27;;;;;;;;;;;12.20;63.40;;;;;;5023234;28;19943;-78
2021/03/05 00:02:54;;;;;;;;;;;12.20;63.60;;;;;;5014050;28;19928;-78
2021/03/05 00:05:20;;;;;;;;;;;12.20;63.60;;;;;;5013441;28;20341;-78
2021/03/05 00:07:47;;;;;;;;;;;12.20;63.90;;;;;;5041868;28;19927;-77
2021/03/05 00:10:14;;;;;;;;;;;12.10;63.50;;;;;;5044060;28;19925;-77
2021/03/05 00:12:41;;;;;;;;;;;12.00;62.90;;;;;;5030746;28;19921;-77
2021/03/05 00:15:08;;;;;;;;;;;12.00;62.60;;;;;;5032679;28;19921;-77
2021/03/05 00:17:34;;;;;;;;;;;11.90;62.10;;;;;;5031962;28;19928;-77
2021/03/05 00:20:01;;;;;;;;;;;11.80;62.60;;;;;;5034944;28;20302;-77
2021/03/05 00:22:28;;;;;;;;;;;11.70;62.30;;;;;;5036603;28;19921;-77
2021/03/05 00:24:54;;;;;;;;;;;11.70;61.50;;;;;;5034270;28;20359;-77
2021/03/05 00:27:20;;;;;;;;;;;11.60;61.70;;;;;;5034332;28;19925;-77
2021/03/05 00:29:47;;;;;;;;;;;11.60;61.10;;;;;;5036030;28;19936;-77
2021/03/05 00:32:13;;;;;;;;;;;11.50;61.10;;;;;;5032650;28;19944;-77
2021/03/05 00:34:39;;;;;;;;;;;11.50;60.50;;;;;;5015319;28;19925;-77
2021/03/05 00:37:06;;;;;;;;;;;11.40;59.90;;;;;;5020252;28;19928;-77
2021/03/05 00:39:33;;;;;;;;;;;11.20;60.40;;;;;;5036260;28;19921;-77
2021/03/05 00:41:59;;;;;;;;;;;11.20;60.60;;;;;;5033434;28;19928;-77
2021/03/05 00:44:25;;;;;;;;;;;11.20;61.10;;;;;;5034440;28;19925;-77
2021/03/05 00:46:51;;;;;;;;;;;11.20;60.90;;;;;;5016447;28;20274;-78
2021/03/05 00:49:18;;;;;;;;;;;11.20;60.90;;;;;;5017400;28;19968;-77
2021/03/05 00:51:44;;;;;;;;;;;11.30;60.70;;;;;;5023461;28;19925;-77
2021/03/05 00:54:11;;;;;;;;;;;11.20;60.40;;;;;;5026146;28;19928;-77
2021/03/05 00:56:37;;;;;;;;;;;11.20;60.20;;;;;;5033500;28;19928;-77
2021/03/05 00:59:04;;;;;;;;;;;11.20;60.10;;;;;;5032616;28;19928;-78
2021/03/05 01:01:30;;;;;;;;;;;11.10;60.10;;;;;;5034262;28;19921;-77
2021/03/05 01:03:56;;;;;;;;;;;11.00;60.00;;;;;;5023833;28;19976;-78
2021/03/05 01:06:23;;;;;;;;;;;10.90;60.40;;;;;;5016078;28;19932;-77
2021/03/05 01:08:49;;;;;;;;;;;10.80;60.30;;;;;;5033842;28;20366;-78
2021/03/05 01:11:16;;;;;;;;;;;10.80;60.80;;;;;;5019348;28;19921;-78
2021/03/05 01:13:43;;;;;;;;;;;10.70;60.50;;;;;;5025132;28;19925;-77
2021/03/05 01:16:09;;;;;;;;;;;10.70;61.20;;;;;;5017584;28;19929;-78
2021/03/05 01:18:36;;;;;;;;;;;10.60;61.50;;;;;;5033847;28;19921;-78
2021/03/05 01:21:02;;;;;;;;;;;10.60;61.60;;;;;;5033059;28;19928;-77
2021/03/05 01:23:29;;;;;;;;;;;10.50;60.90;;;;;;5034961;28;19925;-78
2021/03/05 01:25:55;;;;;;;;;;;10.50;61.10;;;;;;5018993;28;19921;-78
2021/03/05 01:28:22;;;;;;;;;;;10.30;61.20;;;;;;5018320;28;19999;-78
2021/03/05 01:30:49;;;;;;;;;;;10.30;61.50;;;;;;5015866;28;19925;-78
2021/03/05 01:33:15;;;;;;;;;;;10.30;60.80;;;;;;5015566;28;20366;-78
2021/03/05 01:35:41;;;;;;;;;;;10.20;61.10;;;;;;5021328;28;19921;-78
2021/03/05 01:38:08;;;;;;;;;;;10.20;61.40;;;;;;5033627;28;20016;-78
2021/03/05 01:40:35;;;;;;;;;;;10.20;61.30;;;;;;5034107;28;19936;-78
2021/03/05 01:43:02;;;;;;;;;;;10.20;60.60;;;;;;5034376;28;19943;-78
2021/03/05 01:45:30;;;;;;;;;;;10.10;60.50;;;;;;5035128;28;19921;-78
2021/03/05 01:47:57;;;;;;;;;;;10.10;60.80;;;;;;5028195;28;19932;-78
2021/03/05 01:50:25;;;;;;;;;;;10.00;60.80;;;;;;5033412;28;20362;-78
2021/03/05 01:52:52;;;;;;;;;;;10.00;61.20;;;;;;5031295;28;19925;-78
2021/03/05 01:55:19;;;;;;;;;;;9.90;62.50;;;;;;5025065;28;20386;-78
2021/03/05 01:57:46;;;;;;;;;;;9.90;63.10;;;;;;5016337;28;19944;-78
2021/03/05 02:00:14;;;;;;;;;;;9.80;63.70;;;;;;5027501;28;19922;-78
2021/03/05 02:02:41;;;;;;;;;;;9.80;64.20;;;;;;5017567;28;20400;-77
2021/03/05 02:05:08;;;;;;;;;;;9.70;64.00;;;;;;5016776;28;19925;-75
2021/03/05 02:07:34;;;;;;;;;;;9.60;64.40;;;;;;5043578;28;19962;-77
2021/03/05 02:10:00;;;;;;;;;;;9.50;65.10;;;;;;5038954;28;19922;-76
2021/03/05 02:12:27;;;;;;;;;;;9.50;65.30;;;;;;5016174;28;19921;-76
2021/03/05 02:14:53;;;;;;;;;;;9.60;65.50;;;;;;5016214;28;19928;-76
2021/03/05 02:17:24;;;;;;;;;;;9.60;65.40;;;;;;5034046;28;20384;-76
2021/03/05 02:20:10;;;;;;;;;;;9.70;65.00;;;;;;5032105;28;19921;-76
2021/03/05 02:23:00;;;;;;;;;;;9.70;64.40;;;;;;5030697;28;19925;-78
2021/03/05 02:25:53;;;;;;;;;;;9.60;64.60;;;;;;5017449;28;19921;-77
2021/03/05 02:28:34;;;;;;;;;;;9.60;64.40;;;;;;5029488;28;19921;-77
2021/03/05 02:31:21;;;;;;;;;;;9.50;64.60;;;;;;5032445;28;19928;-78
2021/03/05 02:33:49;;;;;;;;;;;9.50;64.40;;;;;;5032354;28;19932;-77
2021/03/05 02:36:18;;;;;;;;;;;9.40;64.20;;;;;;5026392;28;19921;-78
2021/03/05 02:38:47;;;;;;;;;;;9.40;64.30;;;;;;5015238;28;19922;-78
2021/03/05 02:41:14;;;;;;;;;;;9.30;63.30;;;;;;5015401;28;19928;-78
2021/03/05 02:43:41;;;;;;;;;;;9.30;63.50;;;;;;5015263;28;19932;-77
2021/03/05 02:49:16;;;;;;;;;;;9.20;63.50;;;;;;5014149;28;19936;-77
2021/03/05 02:51:42;;;;;;;;;;;9.30;64.00;;;;;;5015442;28;19976;-77
2021/03/05 02:54:09;;;;;;;;;;;9.30;64.50;;;;;;5017357;28;19928;-78
2021/03/05 02:56:38;;;;;;;;;;;9.30;64.70;;;;;;5031776;28;19921;-77
2021/03/05 02:59:05;;;;;;;;;;;9.40;64.70;;;;;;5025643;28;19992;-77
2021/03/05 03:01:32;;;;;;;;;;;9.40;63.90;;;;;;5022425;28;19971;-76
2021/03/05 03:03:59;;;;;;;;;;;9.40;64.00;;;;;;5017088;28;19921;-76
2021/03/05 03:06:26;;;;;;;;;;;9.40;63.60;;;;;;5014971;28;19928;-76
2021/03/05 03:08:53;;;;;;;;;;;9.30;63.50;;;;;;5053275;28;20336;-76
2021/03/05 03:11:20;;;;;;;;;;;9.30;63.90;;;;;;5035963;28;19927;-76
2021/03/05 03:13:47;;;;;;;;;;;9.30;63.40;;;;;;5013850;28;20386;-76
2021/03/05 03:16:15;;;;;;;;;;;9.30;64.00;;;;;;5016974;28;20266;-76
2021/03/05 03:18:42;;;;;;;;;;;9.30;63.60;;;;;;5032676;28;19921;-76
2021/03/05 03:21:08;;;;;;;;;;;9.30;63.80;;;;;;5033471;28;19960;-76
2021/03/05 03:23:36;;;;;;;;;;;9.30;63.20;;;;;;5032269;28;19928;-76
2021/03/05 03:26:02;;;;;;;;;;;9.30;63.50;;;;;;5032899;28;20381;-76
2021/03/05 03:28:29;;;;;;;;;;;9.40;63.90;;;;;;5031506;28;20298;-76
2021/03/05 03:30:55;;;;;;;;;;;9.40;64.10;;;;;;5033137;28;19925;-77
2021/03/05 03:33:22;;;;;;;;;;;9.50;63.80;;;;;;5031466;28;19924;-77
2021/03/05 03:35:48;;;;;;;;;;;9.50;63.50;;;;;;5024775;28;20382;-76
2021/03/05 03:38:15;;;;;;;;;;;9.50;63.40;;;;;;5012444;28;19936;-76
2021/03/05 03:40:43;;;;;;;;;;;9.50;63.40;;;;;;5030004;28;19928;-76
2021/03/05 03:43:09;;;;;;;;;;;9.50;63.20;;;;;;5019845;28;19921;-77
2021/03/05 03:45:37;;;;;;;;;;;9.50;63.50;;;;;;5013459;28;19932;-77
2021/03/05 03:48:04;;;;;;;;;;;9.60;63.70;;;;;;5025742;28;20321;-77
2021/03/05 03:50:31;;;;;;;;;;;9.50;63.00;;;;;;5032525;28;19924;-78
2021/03/05 03:52:59;;;;;;;;;;;9.50;63.10;;;;;;5030794;28;19924;-77
2021/03/05 03:55:25;;;;;;;;;;;9.50;63.10;;;;;;5037657;28;20266;-77
2021/03/05 03:57:53;;;;;;;;;;;9.50;63.40;;;;;;5037233;28;19971;-77
2021/03/05 04:00:20;;;;;;;;;;;9.50;64.20;;;;;;5035943;28;20385;-77
2021/03/05 04:02:49;;;;;;;;;;;9.50;63.40;;;;;;5019701;28;20286;-77
2021/03/05 04:05:17;;;;;;;;;;;9.50;63.60;;;;;;5021582;28;19987;-77
2021/03/05 04:07:44;;;;;;;;;;;9.50;63.60;;;;;;5033523;28;19925;-77
2021/03/05 04:10:11;;;;;;;;;;;9.50;63.80;;;;;;5020720;28;19972;-76
2021/03/05 04:12:38;;;;;;;;;;;9.40;63.60;;;;;;5020014;28;19925;-76
2021/03/05 04:15:06;;;;;;;;;;;9.40;63.50;;;;;;5034786;28;19925;-76
2021/03/05 04:17:32;;;;;;;;;;;9.40;63.50;;;;;;5027884;28;20286;-76
2021/03/05 04:19:59;;;;;;;;;;;9.50;63.70;;;;;;5035305;28;19921;-77
2021/03/05 04:22:26;;;;;;;;;;;9.50;63.40;;;;;;5026516;28;19932;-76
2021/03/05 04:24:53;;;;;;;;;;;9.40;63.30;;;;;;5023052;28;19928;-76
2021/03/05 04:27:19;;;;;;;;;;;9.40;63.60;;;;;;5020594;28;19925;-77
2021/03/05 04:29:46;;;;;;;;;;;9.40;63.80;;;;;;5037326;28;19921;-77
2021/03/05 04:32:13;;;;;;;;;;;9.40;63.90;;;;;;5035080;28;19971;-78
2021/03/05 04:34:39;;;;;;;;;;;9.40;63.90;;;;;;5019424;28;19921;-76
2021/03/05 04:37:05;;;;;;;;;;;9.40;64.00;;;;;;5035736;28;19928;-76
2021/03/05 04:39:31;;;;;;;;;;;9.30;63.90;;;;;;5037786;28;20365;-77
2021/03/05 04:41:58;;;;;;;;;;;9.30;64.10;;;;;;5022741;28;19928;-76
2021/03/05 04:44:24;;;;;;;;;;;9.30;64.80;;;;;;5020327;28;19929;-76
2021/03/05 04:46:50;;;;;;;;;;;9.30;64.00;;;;;;5039037;28;19925;-77
2021/03/05 04:49:17;;;;;;;;;;;9.20;64.00;;;;;;5032912;28;19929;-76
2021/03/05 04:51:44;;;;;;;;;;;9.20;64.70;;;;;;5029223;28;19925;-76
2021/03/05 04:54:10;;;;;;;;;;;9.20;64.90;;;;;;5036908;28;19947;-75
2021/03/05 04:56:37;;;;;;;;;;;9.20;64.80;;;;;;5038134;28;19921;-75
2021/03/05 04:59:03;;;;;;;;;;;9.20;64.80;;;;;;5026330;28;19925;-75
2021/03/05 05:01:29;;;;;;;;;;;9.30;64.80;;;;;;5029123;28;19951;-76
2021/03/05 05:03:56;;;;;;;;;;;9.30;64.60;;;;;;5037141;28;19975;-76
2021/03/05 05:06:23;;;;;;;;;;;9.30;64.90;;;;;;5034811;28;19928;-76
2021/03/05 05:08:49;;;;;;;;;;;9.30;64.50;;;;;;5034805;28;20393;-78
2021/03/05 05:11:18;;;;;;;;;;;9.30;64.50;;;;;;5025046;28;19929;-76
2021/03/05 05:13:44;;;;;;;;;;;9.30;64.40;;;;;;5028536;28;19920;-76
2021/03/05 05:16:11;;;;;;;;;;;9.30;64.30;;;;;;5037716;28;19928;-75
2021/03/05 05:18:37;;;;;;;;;;;9.30;64.30;;;;;;5029625;28;19924;-76
2021/03/05 05:21:04;;;;;;;;;;;9.30;64.30;;;;;;5032437;28;20420;-75
2021/03/05 05:23:31;;;;;;;;;;;9.30;64.30;;;;;;5043120;28;19955;-76
2021/03/05 05:25:57;;;;;;;;;;;9.30;64.20;;;;;;5034898;28;19928;-77
2021/03/05 05:28:24;;;;;;;;;;;9.30;64.00;;;;;;5031012;28;19925;-76
2021/03/05 05:30:50;;;;;;;;;;;9.30;63.70;;;;;;5029549;28;19926;-76
2021/03/05 05:33:16;;;;;;;;;;;9.20;63.80;;;;;;5033598;28;19921;-77
2021/03/05 05:35:42;;;;;;;;;;;9.20;63.90;;;;;;5025344;28;19921;-76
2021/03/05 05:38:09;;;;;;;;;;;9.20;64.00;;;;;;5033591;28;19975;-76
2021/03/05 05:40:37;;;;;;;;;;;9.20;63.90;;;;;;5031159;28;20659;-74
2021/03/05 05:43:03;;;;;;;;;;;9.10;63.80;;;;;;5019826;28;19925;-74
2021/03/05 05:45:29;;;;;;;;;;;9.10;63.90;;;;;;5026975;28;19975;-73
2021/03/05 05:47:57;;;;;;;;;;;9.10;63.90;;;;;;5035045;28;19925;-74
2021/03/05 05:50:24;;;;;;;;;;;9.10;63.90;;;;;;5028964;28;19921;-73
2021/03/05 05:52:51;;;;;;;;;;;9.00;63.80;;;;;;5022140;28;19925;-74
2021/03/05 05:55:19;;;;;;;;;;;9.00;64.00;;;;;;5034775;28;20011;-73
2021/03/05 05:57:46;;;;;;;;;;;9.00;64.10;;;;;;5033698;28;19925;-73
2021/03/05 06:00:13;;;;;;;;;;;9.00;64.10;;;;;;5019349;28;20397;-73
2021/03/05 06:02:40;;;;;;;;;;;9.10;64.10;;;;;;5031245;28;20285;-73
2021/03/05 06:05:07;;;;;;;;;;;9.00;64.00;;;;;;5026892;28;19967;-74
2021/03/05 06:07:34;;;;;;;;;;;9.00;64.20;;;;;;5032719;28;19921;-74
2021/03/05 06:10:00;;;;;;;;;;;9.00;64.10;;;;;;5034175;28;20401;-74
2021/03/05 06:12:26;;;;;;;;;;;9.00;64.10;;;;;;5031862;28;20400;-74
2021/03/05 06:14:54;;;;;;;;;;;9.00;64.40;;;;;;5032179;28;19974;-74
2021/03/05 06:17:20;;;;;;;;;;;9.10;64.20;;;;;;5032819;28;19978;-74
2021/03/05 06:19:55;;;;;;;;;;;9.00;63.90;;;;;;5031926;28;19924;-73
2021/03/05 06:22:22;;;;;;;;;;;9.00;63.50;;;;;;5032331;28;19932;-74
2021/03/05 06:24:48;;;;;;;;;;;9.00;63.40;;;;;;5029150;28;19921;-75
2021/03/05 06:27:16;;;;;;;;;;;9.00;63.30;;;;;;5034010;28;19928;-74
2021/03/05 06:29:43;;;;;;;;;;;9.00;63.50;;;;;;5033735;28;19925;-73
2021/03/05 06:32:10;;;;;;;;;;;8.90;63.40;;;;;;5031630;28;19928;-74
2021/03/05 06:34:44;;;;;;;;;;;8.90;63.70;;;;;;5025291;28;19967;-74
2021/03/05 06:37:11;;;;;;;;;;;8.90;63.70;;;;;;5020873;28;19928;-74
2021/03/05 06:39:37;;;;;;;;;;;9.00;63.70;;;;;;5033437;28;20435;-74
2021/03/05 06:42:05;;;;;;;;;;;9.00;63.50;;;;;;5021378;28;19929;-74
2021/03/05 06:44:31;;;;;;;;;;;9.00;63.20;;;;;;5031568;28;19927;-74
2021/03/05 06:47:06;;;;;;;;;;;9.00;63.30;;;;;;5031486;28;20043;-73
2021/03/05 06:49:33;;;;;;;;;;;9.00;63.30;;;;;;5028602;28;19965;-75
2021/03/05 06:52:00;;;;;;;;;;;9.00;63.30;;;;;;5028757;28;19921;-74
2021/03/05 06:54:28;;;;;;;;;;;9.00;62.90;;;;;;5029592;28;19921;-74
2021/03/05 06:56:55;;;;;;;;;;;9.00;63.00;;;;;;5043057;28;19972;-74
2021/03/05 06:59:21;;;;;;;;;;;8.90;63.50;;;;;;5024261;28;19921;-74
2021/03/05 07:01:49;;;;;;;;;;;8.90;63.30;;;;;;5020037;28;19925;-73
2021/03/05 07:04:16;;;;;;;;;;;8.90;63.40;;;;;;5027681;28;19921;-74
2021/03/05 07:06:43;;;;;;;;;;;8.90;63.70;;;;;;5034448;28;19928;-73
2021/03/05 07:09:10;;;;;;;;;;;8.90;63.70;;;;;;5025206;28;19932;-73
2021/03/05 07:11:38;;;;;;;;;;;9.00;64.10;;;;;;5020021;28;19925;-74
2021/03/05 07:14:05;;;;;;;;;;;8.90;63.50;;;;;;5018746;28;20436;-73
2021/03/05 07:16:42;;;;;;;;;;;8.90;63.60;;;;;;5032735;28;20378;-74
2021/03/05 07:19:09;;;;;;;;;;;8.90;63.70;;;;;;5029483;28;19951;-74
2021/03/05 07:21:39;;;;;;;;;;;8.90;63.80;;;;;;5033036;28;19925;-74
2021/03/05 07:24:07;;;;;;;;;;;8.90;64.00;;;;;;5029395;28;19933;-74
2021/03/05 07:26:42;;;;;;;;;;;8.90;64.00;;;;;;5036703;28;20415;-74
2021/03/05 07:29:13;;;;;;;;;;;9.00;63.80;;;;;;5013674;28;19964;-73
2021/03/05 07:31:41;;;;;;;;;;;9.00;63.80;;;;;;5029316;28;19921;-74
2021/03/05 07:34:09;;;;;;;;;;;9.00;63.50;;;;;;5028692;28;19925;-74
2021/03/05 07:36:36;;;;;;;;;;;8.90;63.30;;;;;;5032757;28;19925;-74
2021/03/05 07:39:03;;;;;;;;;;;8.90;63.40;;;;;;5028295;28;20388;-74
2021/03/05 07:41:32;;;;;;;;;;;8.90;63.50;;;;;;5030584;28;19929;-73
2021/03/05 07:43:58;;;;;;;;;;;8.90;63.70;;;;;;5029626;28;19925;-73
2021/03/05 07:46:25;;;;;;;;;;;9.00;63.80;;;;;;5032860;28;19968;-73
2021/03/05 07:48:51;;;;;;;;;;;9.00;63.50;;;;;;5025465;28;19921;-73
2021/03/05 07:51:18;;;;;;;;;;;9.00;63.50;;;;;;5028978;28;19925;-73
2021/03/05 07:53:51;;;;;;;;;;;9.10;63.40;;;;;;5022742;28;19976;-73
2021/03/05 07:56:36;;;;;;;;;;;9.10;63.10;;;;;;5031987;28;19990;-73
2021/03/05 07:59:03;;;;;;;;;;;9.10;63.00;;;;;;5031100;28;19921;-73
2021/03/05 08:01:44;;;;;;;;;;;9.10;62.80;;;;;;5032285;28;20331;-73
2021/03/05 08:04:11;;;;;;;;;;;9.10;62.50;;;;;;5024165;28;20382;-73
2021/03/05 08:06:37;;;;;;;;;;;9.00;62.60;;;;;;5026827;28;19921;-73
2021/03/05 08:09:07;;;;;;;;;;;9.10;62.90;;;;;;5031943;28;19925;-73
2021/03/05 08:11:36;;;;;;;;;;;9.10;62.60;;;;;;5031203;28;19921;-73
2021/03/05 08:14:17;;;;;;;;;;;9.00;62.70;;;;;;5032376;28;19921;-73
2021/03/05 08:16:44;;;;;;;;;;;9.00;62.60;;;;;;5028508;28;20374;-73
2021/03/05 08:19:44;;;;;;;;;;;9.10;62.80;;;;;;5024490;28;20396;-75
2021/03/05 08:22:11;;;;;;;;;;;9.10;62.70;;;;;;5029145;28;19922;-75
2021/03/05 08:24:39;;;;;;;;;;;9.10;62.40;;;;;;5022493;28;19921;-76
2021/03/05 08:27:07;;;;;;;;;;;9.10;62.70;;;;;;5023959;28;19921;-76
2021/03/05 08:29:50;;;;;;;;;;;9.10;62.30;;;;;;5030646;28;19921;-77
2021/03/05 08:32:35;;;;;;;;;;;9.10;62.50;;;;;;5026295;28;19921;-76
2021/03/05 08:35:03;;;;;;;;;;;9.20;62.30;;;;;;5031366;28;19932;-75
2021/03/05 08:37:30;;;;;;;;;;;9.20;62.50;;;;;;5024282;28;19921;-76
2021/03/05 08:40:11;;;;;;;;;;;9.20;62.50;;;;;;5024201;28;19944;-74
2021/03/05 08:42:40;;;;;;;;;;;9.30;62.20;;;;;;5020864;28;19921;-75
2021/03/05 08:45:07;;;;;;;;;;;9.30;62.30;;;;;;5031551;28;19925;-75
2021/03/05 08:47:34;;;;;;;;;;;9.30;62.00;;;;;;5027446;28;19928;-75
2021/03/05 08:50:03;;;;;;;;;;;9.30;62.00;;;;;;5031732;28;19925;-74
2021/03/05 08:52:29;;;;;;;;;;;9.30;62.10;;;;;;5035601;28;19925;-76
2021/03/05 08:54:56;;;;;;;;;;;9.30;62.20;;;;;;5027893;28;20430;-76
2021/03/05 08:57:22;;;;;;;;;;;9.30;62.00;;;;;;5025109;28;19929;-76
2021/03/05 08:59:51;;;;;;;;;;;9.40;62.10;;;;;;5016137;28;19925;-76
2021/03/05 09:02:17;;;;;;;;;;;9.30;61.80;;;;;;5033104;28;19996;-74
2021/03/05 09:04:43;;;;;;;;;;;9.30;61.30;;;;;;5034321;28;20381;-73
2021/03/05 09:07:13;;;;;;;;;;;9.30;61.50;;;;;;5039440;28;19925;-74
2021/03/05 09:09:40;;;;;;;;;;;9.30;61.50;;;;;;5035907;28;20059;-74
2021/03/05 09:12:07;;;;;;;;;;;9.30;61.40;;;;;;5030683;28;19971;-72
2021/03/05 09:14:34;;;;;;;;;;;9.30;61.20;;;;;;5035793;28;19960;-73
2021/03/05 09:17:01;;;;;;;;;;;9.20;62.00;;;;;;5030962;28;19925;-73
2021/03/05 09:19:34;;;;;;;;;;;9.20;61.90;;;;;;5030174;28;19928;-75
2021/03/05 09:22:07;;;;;;;;;;;9.30;62.10;;;;;;5034968;28;19932;-75
2021/03/05 09:24:52;;;;;;;;;;;9.30;62.20;;;;;;5033698;28;19920;-76
2021/03/05 09:27:20;;;;;;;;;;;9.30;62.00;;;;;;5035494;28;19921;-75
2021/03/05 09:29:46;;;;;;;;;;;9.40;61.60;;;;;;5035251;28;19932;-75
2021/03/05 09:32:12;;;;;;;;;;;9.50;61.50;;;;;;5034750;28;20278;-75
2021/03/05 09:34:52;;;;;;;;;;;9.50;61.10;;;;;;5035280;28;19921;-75
2021/03/05 09:37:18;;;;;;;;;;;9.50;60.90;;;;;;5035205;28;19983;-75
2021/03/05 09:39:45;;;;;;;;;;;9.50;61.60;;;;;;5035215;28;19921;-75
2021/03/05 09:42:12;;;;;;;;;;;9.50;61.30;;;;;;5034820;28;19925;-75
2021/03/05 09:44:45;;;;;;;;;;;9.60;60.70;;;;;;5035204;28;19928;-74
2021/03/05 09:47:12;;;;;;;;;;;9.70;60.90;;;;;;5034888;28;19924;-74
2021/03/05 09:49:39;;;;;;;;;;;9.70;60.00;;;;;;5034131;28;19921;-75
2021/03/05 09:52:05;;;;;;;;;;;9.70;59.60;;;;;;5032426;28;19921;-75
2021/03/05 09:54:39;;;;;;;;;;;9.70;59.40;;;;;;5035048;28;19921;-74
2021/03/05 09:57:05;;;;;;;;;;;9.80;59.70;;;;;;5034236;28;19921;-74
2021/03/05 09:59:41;;;;;;;;;;;9.80;59.40;;;;;;5029577;28;19924;-74
2021/03/05 10:02:09;;;;;;;;;;;9.90;59.40;;;;;;5034374;28;19951;-75
2021/03/05 10:04:41;;;;;;;;;;;9.90;59.40;;;;;;5034266;28;20364;-74
2021/03/05 10:07:08;;;;;;;;;;;9.90;59.20;;;;;;5034891;28;19925;-74
2021/03/05 10:09:34;;;;;;;;;;;10.00;58.20;;;;;;5033608;28;19968;-73
2021/03/05 10:12:00;;;;;;;;;;;10.00;57.60;;;;;;5034459;28;19929;-73
2021/03/05 10:14:28;;;;;;;;;;;10.00;57.30;;;;;;5025275;28;19928;-74
2021/03/05 10:16:54;;;;;;;;;;;9.90;58.00;;;;;;5029268;28;19921;-73
2021/03/05 10:19:22;;;;;;;;;;;9.90;58.00;;;;;;5032600;28;19925;-74
2021/03/05 10:21:49;;;;;;;;;;;9.90;58.20;;;;;;5033759;28;20362;-74
2021/03/05 10:24:16;;;;;;;;;;;10.00;57.50;;;;;;5034112;28;19921;-74
2021/03/05 10:27:10;;;;;;;;;;;10.00;57.50;;;;;;5034314;28;19996;-75
2021/03/05 10:29:37;;;;;;;;;;;10.20;57.10;;;;;;5014104;28;19932;-74
2021/03/05 10:32:04;;;;;;;;;;;10.20;56.60;;;;;;5014797;28;19925;-74
2021/03/05 10:34:32;;;;;;;;;;;10.20;56.40;;;;;;5030365;28;19932;-74
2021/03/05 10:36:59;;;;;;;;;;;10.30;56.30;;;;;;5031940;28;19921;-74
2021/03/05 10:39:26;;;;;;;;;;;10.20;56.50;;;;;;5033587;28;19921;-74
2021/03/05 10:41:54;;;;;;;;;;;10.20;56.60;;;;;;5033989;28;19955;-74
2021/03/05 10:44:20;;;;;;;;;;;10.20;56.50;;;;;;5021885;28;19928;-74
2021/03/05 10:46:46;;;;;;;;;;;10.30;56.00;;;;;;5015016;28;19921;-73
2021/03/05 10:49:13;;;;;;;;;;;10.20;56.00;;;;;;5032950;28;19928;-73
2021/03/05 10:51:40;;;;;;;;;;;10.20;55.90;;;;;;5033778;28;20431;-74
2021/03/05 10:54:06;;;;;;;;;;;10.20;56.10;;;;;;5033974;28;19952;-74
2021/03/05 10:56:33;;;;;;;;;;;10.10;56.10;;;;;;5033632;28;20301;-74
2021/03/05 10:59:00;;;;;;;;;;;10.10;56.00;;;;;;5032707;28;19924;-74
2021/03/05 11:01:26;;;;;;;;;;;10.00;55.70;;;;;;5022478;28;20362;-75
2021/03/05 11:03:52;;;;;;;;;;;9.90;56.70;;;;;;5014990;28;19925;-75
2021/03/05 11:06:18;;;;;;;;;;;9.90;56.80;;;;;;5025279;28;20262;-75
2021/03/05 11:08:46;;;;;;;;;;;10.00;56.20;;;;;;5052216;28;19927;-74
2021/03/05 11:11:12;;;;;;;;;;;10.10;55.90;;;;;;5041770;28;19924;-75
2021/03/05 11:13:38;;;;;;;;;;;10.10;55.90;;;;;;5033407;28;19925;-75
2021/03/05 11:16:07;;;;;;;;;;;10.20;55.70;;;;;;5032604;28;19921;-75
2021/03/05 11:18:34;;;;;;;;;;;10.30;55.70;;;;;;5033459;28;19921;-75
2021/03/05 11:21:00;;;;;;;;;;;10.40;55.30;;;;;;5026500;28;20362;-75
2021/03/05 11:23:26;;;;;;;;;;;10.40;55.10;;;;;;5022949;28;19921;-75
2021/03/05 11:25:54;;;;;;;;;;;10.40;54.50;;;;;;5028114;28;19922;-75
2021/03/05 11:28:20;;;;;;;;;;;10.30;54.70;;;;;;5013336;28;20307;-75
2021/03/05 11:30:46;;;;;;;;;;;10.20;54.60;;;;;;5029909;28;19928;-75
2021/03/05 11:33:13;;;;;;;;;;;10.10;54.70;;;;;;5032934;28;20289;-75
2021/03/05 11:35:39;;;;;;;;;;;10.00;54.80;;;;;;5032250;28;19979;-74
2021/03/05 11:38:05;;;;;;;;;;;10.00;55.20;;;;;;5030219;28;19929;-75
2021/03/05 11:40:32;;;;;;;;;;;10.00;55.50;;;;;;5027186;28;19925;-75
2021/03/05 11:42:59;;;;;;;;;;;10.00;56.00;;;;;;5033127;28;20305;-75
2021/03/05 11:45:26;;;;;;;;;;;9.90;56.50;;;;;;5032369;28;19928;-74
2021/03/05 11:47:52;;;;;;;;;;;10.00;55.70;;;;;;5032926;28;20385;-75
2021/03/05 11:50:18;;;;;;;;;;;10.00;55.60;;;;;;5032930;28;20373;-75
2021/03/05 11:52:45;;;;;;;;;;;10.10;55.20;;;;;;5032979;28;19921;-74
2021/03/05 11:55:11;;;;;;;;;;;10.10;55.10;;;;;;5032667;28;19983;-74
2021/03/05 11:57:38;;;;;;;;;;;10.10;54.60;;;;;;5032352;28;19921;-74
2021/03/05 12:00:06;;;;;;;;;;;10.00;54.40;;;;;;5026116;28;19921;-74
2021/03/05 12:02:32;;;;;;;;;;;10.00;54.50;;;;;;5032814;28;20012;-74
2021/03/05 12:04:59;;;;;;;;;;;10.00;54.70;;;;;;5031245;28;20365;-74
2021/03/05 12:07:25;;;;;;;;;;;10.00;54.50;;;;;;5038269;28;20348;-74
2021/03/05 12:09:51;;;;;;;;;;;9.90;55.50;;;;;;5032648;28;19925;-74
2021/03/05 12:12:18;;;;;;;;;;;9.90;55.30;;;;;;5032390;28;19928;-75
2021/03/05 12:14:45;;;;;;;;;;;9.90;55.30;;;;;;5033088;28;20338;-74
2021/03/05 12:17:12;;;;;;;;;;;9.90;55.30;;;;;;5036275;28;19943;-74
2021/03/05 12:19:38;;;;;;;;;;;10.00;54.30;;;;;;5036466;28;20356;-74
2021/03/05 12:22:05;;;;;;;;;;;10.10;54.20;;;;;;5035617;28;19944;-74
2021/03/05 12:24:31;;;;;;;;;;;10.10;53.90;;;;;;5036590;28;19921;-74
2021/03/05 12:26:57;;;;;;;;;;;10.10;53.80;;;;;;5036187;28;19921;-74
2021/03/05 12:29:24;;;;;;;;;;;10.20;54.00;;;;;;5034571;28;19928;-73
2021/03/05 12:31:50;;;;;;;;;;;10.20;53.80;;;;;;5033828;28;19936;-73
2021/03/05 12:34:17;;;;;;;;;;;10.30;53.80;;;;;;5035218;28;20383;-74
2021/03/05 12:36:43;;;;;;;;;;;10.30;53.50;;;;;;5036430;28;19921;-73
2021/03/05 12:39:09;;;;;;;;;;;10.40;53.50;;;;;;5035964;28;19925;-74
2021/03/05 12:41:36;;;;;;;;;;;10.40;53.40;;;;;;5036013;28;19990;-74
2021/03/05 12:44:02;;;;;;;;;;;10.40;53.40;;;;;;5035831;28;19921;-74
2021/03/05 12:46:28;;;;;;;;;;;10.40;53.40;;;;;;5017476;28;19933;-74
2021/03/05 12:48:55;;;;;;;;;;;10.50;52.80;;;;;;5031407;28;19924;-74
2021/03/05 12:51:22;;;;;;;;;;;10.40;52.40;;;;;;5036266;28;19988;-75
2021/03/05 12:53:48;;;;;;;;;;;10.40;52.90;;;;;;5022093;28;19975;-74
2021/03/05 12:56:14;;;;;;;;;;;10.50;53.10;;;;;;5016334;28;20293;-74
2021/03/05 12:58:41;;;;;;;;;;;10.50;52.80;;;;;;5025372;28;19928;-74
2021/03/05 13:01:07;;;;;;;;;;;10.50;52.80;;;;;;5030434;28;20386;-73
2021/03/05 13:03:37;;;;;;;;;;;10.50;52.90;;;;;;5024726;28;19925;-74
2021/03/05 13:06:03;;;;;;;;;;;10.60;52.90;;;;;;5034171;28;20389;-74
2021/03/05 13:08:30;;;;;;;;;;;10.60;52.50;;;;;;5042610;28;19928;-74
2021/03/05 13:10:56;;;;;;;;;;;10.60;52.30;;;;;;5034748;28;20370;-74
2021/03/05 13:13:28;;;;;;;;;;;10.60;52.20;;;;;;5035932;28;19921;-74
2021/03/05 13:15:54;;;;;;;;;;;10.60;52.10;;;;;;5023855;28;19925;-74
2021/03/05 13:18:20;;;;;;;;;;;10.60;52.40;;;;;;5035448;28;19920;-74
2021/03/05 13:20:47;;;;;;;;;;;10.60;52.30;;;;;;5020768;28;19925;-74
2021/03/05 13:23:13;;;;;;;;;;;10.60;52.20;;;;;;5027171;28;19928;-74
2021/03/05 13:25:43;;;;;;;;;;;10.60;52.00;;;;;;5032319;28;20336;-74
2021/03/05 13:28:10;;;;;;;;;;;10.50;51.90;;;;;;5034328;28;20004;-74
2021/03/05 13:30:36;;;;;;;;;;;10.40;52.10;;;;;;5033561;28;20377;-74
2021/03/05 13:33:02;;;;;;;;;;;10.30;52.20;;;;;;5028978;28;19921;-73
2021/03/05 13:35:30;;;;;;;;;;;10.40;52.60;;;;;;5016601;28;19984;-74
2021/03/05 13:37:56;;;;;;;;;;;10.40;52.80;;;;;;5029021;28;19921;-74
2021/03/05 13:40:23;;;;;;;;;;;10.50;52.40;;;;;;5018725;28;20340;-74
2021/03/05 13:42:50;;;;;;;;;;;10.50;52.40;;;;;;5034694;28;19928;-74
2021/03/05 13:45:17;;;;;;;;;;;10.50;52.50;;;;;;5032795;28;20366;-74
2021/03/05 13:47:43;;;;;;;;;;;10.60;52.30;;;;;;5034956;28;19921;-74
2021/03/05 13:50:10;;;;;;;;;;;10.70;52.20;;;;;;5032990;28;19921;-75
2021/03/05 13:52:37;;;;;;;;;;;10.80;52.20;;;;;;5035056;28;19920;-74
2021/03/05 13:55:04;;;;;;;;;;;10.80;52.00;;;;;;5034806;28;19921;-74
2021/03/05 13:57:30;;;;;;;;;;;10.90;51.90;;;;;;5034004;28;19921;-75
2021/03/05 13:59:58;;;;;;;;;;;11.00;51.90;;;;;;5035227;28;19921;-74
2021/03/05 14:02:24;;;;;;;;;;;11.00;51.70;;;;;;5034637;28;19975;-74
2021/03/05 14:04:51;;;;;;;;;;;11.00;51.50;;;;;;5034773;28;19921;-75
2021/03/05 14:07:18;;;;;;;;;;;10.80;51.40;;;;;;5040174;28;19921;-74
2021/03/05 14:09:44;;;;;;;;;;;10.70;51.40;;;;;;5054484;28;19928;-75
2021/03/05 14:12:11;;;;;;;;;;;10.60;51.80;;;;;;5045332;28;19921;-75
2021/03/05 14:14:38;;;;;;;;;;;10.50;52.20;;;;;;5032785;28;19921;-75
2021/03/05 14:17:05;;;;;;;;;;;10.40;52.70;;;;;;5032926;28;19921;-75
2021/03/05 14:19:32;;;;;;;;;;;10.30;52.90;;;;;;5034681;28;19929;-75
2021/03/05 14:21:58;;;;;;;;;;;10.20;53.00;;;;;;5034489;28;20370;-75
2021/03/05 14:24:24;;;;;;;;;;;10.10;53.70;;;;;;5034369;28;19920;-74
2021/03/05 14:26:51;;;;;;;;;;;10.10;54.30;;;;;;5033817;28;19980;-75
2021/03/05 14:29:18;;;;;;;;;;;10.00;54.50;;;;;;5033741;28;19921;-75